sensor_id;sensor_type;location;lat;lon;timestamp;P1;durP1;ratioP1;P2;durP2;ratioP2
53833;SDS011;39735;51.432;5.482;2023-05-10T18:00:00;8.27;;;7.65;;
53833;SDS011;39735;51.432;5.482;2023-05-10T18:02:27;11.90;;;10.13;;
53833;SDS011;39735;51.432;5.482;2023-05-10T18:04:53;48.50;;;37.03;;
53833;SDS011;39735;51.432;5.482;2023-05-10T18:07:19;48.65;;;38.28;;
53833;SDS011;39735;51.432;5.482;2023-05-10T18:09:47;16.80;;;14.00;;
53833;SDS011;39735;51.432;5.482;2023-05-10T18:12:12;8.52;;;7.78;;
53833;SDS011;39735;51.432;5.482;2023-05-10T18:14:38;21.58;;;9.45;;
53833;SDS011;39735;51.432;5.482;2023-05-10T18:17:03;10.77;;;8.88;;
53833;SDS011;39735;51.432;5.482;2023-05-10T18:19:29;7.70;;;6.95;;
53833;SDS011;39735;51.432;5.482;2023-05-10T18:21:54;9.63;;;5.97;;
53833;SDS011;39735;51.432;5.482;2023-05-10T18:24:19;7.45;;;6.85;;
53833;SDS011;39735;51.432;5.482;2023-05-10T18:26:48;18.15;;;7.30;;
53833;SDS011;39735;51.432;5.482;2023-05-10T18:29:13;8.18;;;7.50;;
53833;SDS011;39735;51.432;5.482;2023-05-10T18:31:38;27.15;;;8.57;;
53833;SDS011;39735;51.432;5.482;2023-05-10T18:34:04;18.48;;;8.82;;
53833;SDS011;39735;51.432;5.482;2023-05-10T18:36:30;17.13;;;7.75;;
53833;SDS011;39735;51.432;5.482;2023-05-10T18:38:57;8.65;;;7.65;;
53833;SDS011;39735;51.432;5.482;2023-05-10T18:41:22;10.00;;;8.02;;
53833;SDS011;39735;51.432;5.482;2023-05-10T18:43:50;20.65;;;9.38;;
53833;SDS011;39735;51.432;5.482;2023-05-10T18:46:16;10.27;;;9.05;;
53833;SDS011;39735;51.432;5.482;2023-05-10T18:48:42;10.35;;;9.25;;
53833;SDS011;39735;51.432;5.482;2023-05-10T18:51:07;20.42;;;10.50;;
53833;SDS011;39735;51.432;5.482;2023-05-10T18:53:33;14.63;;;9.85;;
53833;SDS011;39735;51.432;5.482;2023-05-10T18:55:58;8.55;;;7.72;;
53833;SDS011;39735;51.432;5.482;2023-05-10T18:58:27;9.07;;;8.27;;
53833;SDS011;39735;51.432;5.482;2023-05-10T19:00:53;9.95;;;8.98;;
53833;SDS011;39735;51.432;5.482;2023-05-10T19:03:18;12.57;;;9.68;;
53833;SDS011;39735;51.432;5.482;2023-05-10T19:05:45;13.60;;;8.77;;
53833;SDS011;39735;51.432;5.482;2023-05-10T19:08:12;11.73;;;10.48;;
53833;SDS011;39735;51.432;5.482;2023-05-10T19:10:41;13.80;;;11.25;;
53833;SDS011;39735;51.432;5.482;2023-05-10T19:13:06;16.33;;;10.70;;
53833;SDS011;39735;51.432;5.482;2023-05-10T19:15:32;13.18;;;10.15;;
53833;SDS011;39735;51.432;5.482;2023-05-10T19:17:57;14.73;;;10.65;;
53833;SDS011;39735;51.432;5.482;2023-05-10T19:20:23;11.27;;;10.13;;
53833;SDS011;39735;51.432;5.482;2023-05-10T19:22:48;14.90;;;11.50;;
53833;SDS011;39735;51.432;5.482;2023-05-10T19:25:14;11.98;;;10.68;;
53833;SDS011;39735;51.432;5.482;2023-05-10T19:27:40;17.52;;;10.00;;
53833;SDS011;39735;51.432;5.482;2023-05-10T19:30:06;12.88;;;11.27;;
53833;SDS011;39735;51.432;5.482;2023-05-10T19:32:32;18.83;;;10.55;;
53833;SDS011;39735;51.432;5.482;2023-05-10T19:34:57;11.77;;;9.02;;
53833;SDS011;39735;51.432;5.482;2023-05-10T19:37:23;22.10;;;10.65;;
53833;SDS011;39735;51.432;5.482;2023-05-10T19:39:48;20.05;;;11.43;;
53833;SDS011;39735;51.432;5.482;2023-05-10T19:42:14;14.98;;;11.70;;
53833;SDS011;39735;51.432;5.482;2023-05-10T19:44:39;19.80;;;11.95;;
53833;SDS011;39735;51.432;5.482;2023-05-10T19:47:05;14.35;;;11.20;;
53833;SDS011;39735;51.432;5.482;2023-05-10T19:49:32;30.25;;;11.23;;
53833;SDS011;39735;51.432;5.482;2023-05-10T19:51:58;15.57;;;11.98;;
53833;SDS011;39735;51.432;5.482;2023-05-10T19:54:23;11.05;;;10.05;;
53833;SDS011;39735;51.432;5.482;2023-05-10T19:56:48;12.60;;;10.98;;
53833;SDS011;39735;51.432;5.482;2023-05-10T19:59:14;14.55;;;10.82;;
53833;SDS011;39735;51.432;5.482;2023-05-10T20:01:39;13.23;;;11.15;;
53833;SDS011;39735;51.432;5.482;2023-05-10T20:04:05;11.65;;;10.55;;
53833;SDS011;39735;51.432;5.482;2023-05-10T20:06:30;11.45;;;9.63;;
53833;SDS011;39735;51.432;5.482;2023-05-10T20:08:56;13.65;;;10.00;;
53833;SDS011;39735;51.432;5.482;2023-05-10T20:11:21;22.88;;;10.80;;
53833;SDS011;39735;51.432;5.482;2023-05-10T20:13:47;11.07;;;9.77;;
53833;SDS011;39735;51.432;5.482;2023-05-10T20:16:12;14.88;;;10.48;;
53833;SDS011;39735;51.432;5.482;2023-05-10T20:18:38;13.30;;;10.00;;
53833;SDS011;39735;51.432;5.482;2023-05-10T20:21:03;14.43;;;10.45;;
53833;SDS011;39735;51.432;5.482;2023-05-10T20:23:29;22.92;;;12.27;;
53833;SDS011;39735;51.432;5.482;2023-05-10T20:25:54;16.25;;;12.15;;
53833;SDS011;39735;51.432;5.482;2023-05-10T20:28:23;20.17;;;13.57;;
53833;SDS011;39735;51.432;5.482;2023-05-10T20:30:50;17.17;;;15.48;;
53833;SDS011;39735;51.432;5.482;2023-05-10T20:33:17;19.98;;;13.88;;
53833;SDS011;39735;51.432;5.482;2023-05-10T20:35:43;15.98;;;13.88;;
53833;SDS011;39735;51.432;5.482;2023-05-10T20:38:08;16.90;;;13.60;;
53833;SDS011;39735;51.432;5.482;2023-05-10T20:40:33;17.85;;;11.80;;
53833;SDS011;39735;51.432;5.482;2023-05-10T20:43:00;13.55;;;11.38;;
53833;SDS011;39735;51.432;5.482;2023-05-10T20:45:25;13.32;;;11.77;;
53833;SDS011;39735;51.432;5.482;2023-05-10T20:47:51;23.73;;;13.05;;
53833;SDS011;39735;51.432;5.482;2023-05-10T20:50:16;28.98;;;13.93;;
53833;SDS011;39735;51.432;5.482;2023-05-10T20:52:42;16.50;;;11.23;;
53833;SDS011;39735;51.432;5.482;2023-05-10T20:55:07;12.48;;;10.65;;
53833;SDS011;39735;51.432;5.482;2023-05-10T20:57:33;11.68;;;10.48;;
53833;SDS011;39735;51.432;5.482;2023-05-10T20:59:58;21.45;;;12.68;;
53833;SDS011;39735;51.432;5.482;2023-05-10T21:02:24;13.07;;;11.45;;
53833;SDS011;39735;51.432;5.482;2023-05-10T21:04:49;20.13;;;11.95;;
53833;SDS011;39735;51.432;5.482;2023-05-10T21:07:15;21.27;;;11.60;;
53833;SDS011;39735;51.432;5.482;2023-05-10T21:09:40;16.17;;;11.70;;
53833;SDS011;39735;51.432;5.482;2023-05-10T21:12:06;13.10;;;10.88;;
53833;SDS011;39735;51.432;5.482;2023-05-10T21:14:32;12.18;;;10.55;;
53833;SDS011;39735;51.432;5.482;2023-05-10T21:16:59;11.63;;;9.93;;
53833;SDS011;39735;51.432;5.482;2023-05-10T21:19:24;10.75;;;9.90;;
53833;SDS011;39735;51.432;5.482;2023-05-10T21:21:50;18.10;;;11.20;;
53833;SDS011;39735;51.432;5.482;2023-05-10T21:24:15;11.02;;;9.93;;
53833;SDS011;39735;51.432;5.482;2023-05-10T21:26:41;17.63;;;11.68;;
53833;SDS011;39735;51.432;5.482;2023-05-10T21:29:06;14.75;;;11.70;;
53833;SDS011;39735;51.432;5.482;2023-05-10T21:31:31;14.10;;;12.70;;
53833;SDS011;39735;51.432;5.482;2023-05-10T21:34:00;16.92;;;12.82;;
53833;SDS011;39735;51.432;5.482;2023-05-10T21:36:25;25.23;;;12.27;;
53833;SDS011;39735;51.432;5.482;2023-05-10T21:38:51;16.85;;;11.80;;
53833;SDS011;39735;51.432;5.482;2023-05-10T21:41:17;17.17;;;11.40;;
53833;SDS011;39735;51.432;5.482;2023-05-10T21:43:42;19.90;;;11.70;;
53833;SDS011;39735;51.432;5.482;2023-05-10T21:46:07;13.88;;;12.63;;
53833;SDS011;39735;51.432;5.482;2023-05-10T21:48:33;14.15;;;12.70;;
53833;SDS011;39735;51.432;5.482;2023-05-10T21:50:59;15.73;;;11.50;;
53833;SDS011;39735;51.432;5.482;2023-05-10T21:53:25;15.40;;;12.18;;
53833;SDS011;39735;51.432;5.482;2023-05-10T21:55:52;14.45;;;12.55;;
53833;SDS011;39735;51.432;5.482;2023-05-10T21:58:19;15.55;;;11.90;;
53833;SDS011;39735;51.432;5.482;2023-05-10T22:00:50;29.70;;;12.20;;
53833;SDS011;39735;51.432;5.482;2023-05-10T22:03:16;23.17;;;12.93;;
53833;SDS011;39735;51.432;5.482;2023-05-10T22:05:44;12.27;;;11.18;;
53833;SDS011;39735;51.432;5.482;2023-05-10T22:08:32;15.65;;;12.15;;
53833;SDS011;39735;51.432;5.482;2023-05-10T22:10:58;14.70;;;12.90;;
53833;SDS011;39735;51.432;5.482;2023-05-10T22:13:39;14.63;;;13.02;;
53833;SDS011;39735;51.432;5.482;2023-05-10T22:16:04;24.70;;;13.02;;
53833;SDS011;39735;51.432;5.482;2023-05-10T22:18:30;18.25;;;13.20;;
53833;SDS011;39735;51.432;5.482;2023-05-10T22:20:56;16.85;;;12.77;;
53833;SDS011;39735;51.432;5.482;2023-05-10T22:23:21;24.65;;;15.75;;
53833;SDS011;39735;51.432;5.482;2023-05-10T22:25:47;22.55;;;13.32;;
53833;SDS011;39735;51.432;5.482;2023-05-10T22:28:31;15.10;;;12.85;;
53833;SDS011;39735;51.432;5.482;2023-05-10T22:31:56;13.00;;;11.80;;
53833;SDS011;39735;51.432;5.482;2023-05-10T22:35:21;19.83;;;12.57;;
53833;SDS011;39735;51.432;5.482;2023-05-10T22:38:44;18.80;;;11.65;;
53833;SDS011;39735;51.432;5.482;2023-05-10T22:42:09;18.08;;;14.23;;
53833;SDS011;39735;51.432;5.482;2023-05-10T22:45:33;28.48;;;13.07;;
53833;SDS011;39735;51.432;5.482;2023-05-10T22:48:57;23.45;;;12.75;;
53833;SDS011;39735;51.432;5.482;2023-05-10T22:52:22;18.50;;;12.27;;
53833;SDS011;39735;51.432;5.482;2023-05-10T22:55:46;15.75;;;14.25;;
53833;SDS011;39735;51.432;5.482;2023-05-10T22:59:09;14.13;;;12.95;;
53833;SDS011;39735;51.432;5.482;2023-05-10T23:02:36;14.02;;;12.60;;
53833;SDS011;39735;51.432;5.482;2023-05-10T23:06:00;19.98;;;13.98;;
53833;SDS011;39735;51.432;5.482;2023-05-10T23:09:24;15.70;;;13.32;;
53833;SDS011;39735;51.432;5.482;2023-05-10T23:12:45;19.80;;;15.68;;
53833;SDS011;39735;51.432;5.482;2023-05-10T23:16:10;21.55;;;15.23;;
53833;SDS011;39735;51.432;5.482;2023-05-10T23:19:34;44.25;;;16.95;;
53833;SDS011;39735;51.432;5.482;2023-05-10T23:22:58;22.55;;;14.48;;
53833;SDS011;39735;51.432;5.482;2023-05-10T23:26:22;15.45;;;13.55;;
53833;SDS011;39735;51.432;5.482;2023-05-10T23:29:46;37.72;;;16.27;;
53833;SDS011;39735;51.432;5.482;2023-05-10T23:33:10;21.23;;;15.45;;
53833;SDS011;39735;51.432;5.482;2023-05-10T23:36:34;17.77;;;15.25;;
53833;SDS011;39735;51.432;5.482;2023-05-10T23:39:58;17.63;;;15.43;;
53833;SDS011;39735;51.432;5.482;2023-05-10T23:43:22;25.77;;;16.80;;
53833;SDS011;39735;51.432;5.482;2023-05-10T23:46:46;24.80;;;16.40;;
53833;SDS011;39735;51.432;5.482;2023-05-10T23:50:10;19.95;;;16.20;;
53833;SDS011;39735;51.432;5.482;2023-05-10T23:53:34;24.13;;;16.15;;
53833;SDS011;39735;51.432;5.482;2023-05-10T23:56:58;21.27;;;15.90;;
